Data for 09/12/2009

Time Sea-Level Adjusted Pressure Absolute Pressure Temperature Relative Humidity Dew Point   
(mb) (inHg) (mb) (inHg) (C) (F) (%) (C) (F)
00:05 1026 30.3 855 25.25 13.3 56 41 0.3 32.6
00:10 1026 30.3 855 25.25 13.2 55.8 41 0.4 32.7
00:15 1026 30.3 855 25.25 13.2 55.7 42 0.5 32.9
00:20 1026 30.3 855 25.25 13.1 55.5 42 0.4 32.8
00:25 1026 30.3 855 25.25 13 55.5 42 0.5 33
00:30 1026 30.3 855 25.25 13 55.4 43 0.7 33.2
00:35 1026 30.3 855 25.25 12.9 55.2 43 0.7 33.3
00:40 1026 30.3 855 25.25 12.7 54.9 44 0.8 33.4
00:45 1026 30.3 855 25.25 12.6 54.8 44 0.8 33.5
00:50 1026 30.3 855 25.25 12.6 54.8 45 0.9 33.7
00:55 1026 30.3 855 25.25 12.6 54.7 45 1 33.8
01:00 1026 30.3 855 25.25 12.6 54.6 45 1 33.9
01:05 1026 30.3 855 25.25 12.5 54.5 45 1.1 34
01:10 1026 30.3 855 25.25 12.5 54.5 46 1.2 34.1
01:15 1026 30.3 855 25.25 12.3 54.2 46 1.2 34.2
01:20 1026 30.3 855 25.25 12.3 54.1 46 1.1 34
01:25 1026 30.3 855 25.25 12.3 54.1 46 1.1 33.9
01:30 1026 30.3 855 25.25 12.3 54.1 47 1.3 34.3
01:35 1026 30.3 855 25.25 12.2 53.9 47 1.2 34.1
01:40 1026 30.3 855 25.25 12.2 54 47 1.3 34.3
01:45 1026 30.3 855 25.25 12.2 53.9 47 1.3 34.3
01:50 1025 30.27 855 25.25 12.3 54.1 47 1.3 34.3
01:55 1025 30.27 855 25.25 12.3 54.1 47 1.3 34.4
02:00 1025 30.27 855 25.25 12.2 54 47 1.4 34.4
02:05 1025 30.27 855 25.25 12.1 53.8 47 1.4 34.4
02:10 1025 30.27 855 25.25 12 53.5 48 1.4 34.6
02:15 1025 30.27 854 25.22 11.9 53.3 49 1.4 34.6
02:20 1025 30.27 854 25.22 11.7 53.1 49 1.5 34.6
02:25 1025 30.27 854 25.22 11.7 53 49 1.4 34.5
02:30 1025 30.27 854 25.22 11.8 53.2 49 1.3 34.4
02:35 1025 30.27 854 25.22 11.8 53.2 49 1.5 34.6
02:40 1025 30.27 854 25.22 11.7 53.1 49 1.4 34.5
02:45 1025 30.27 854 25.22 11.7 53 49 1.4 34.6
02:50 1025 30.27 854 25.22 11.5 52.8 50 1.4 34.6
02:55 1025 30.27 854 25.22 11.5 52.7 50 1.5 34.6
03:00 1025 30.27 854 25.22 11.5 52.6 50 1.4 34.5
03:05 1025 30.27 854 25.22 11.4 52.6 50 1.4 34.6
03:10 1025 30.27 854 25.22 11.3 52.3 51 1.4 34.6
03:15 1025 30.27 854 25.22 11.2 52.1 51 1.4 34.6
03:20 1025 30.27 854 25.22 11.2 52.1 51 1.4 34.5
03:25 1025 30.27 854 25.22 11.1 51.9 51 1.4 34.6
03:30 1025 30.27 854 25.22 11 51.8 52 1.5 34.6
03:35 1025 30.27 854 25.22 10.9 51.6 52 1.4 34.6
03:40 1025 30.27 854 25.22 10.9 51.6 52 1.4 34.5
03:45 1025 30.27 854 25.22 10.8 51.5 52 1.5 34.6
03:50 1025 30.27 854 25.22 10.7 51.3 52 1.4 34.5
03:55 1025 30.27 854 25.22 10.8 51.4 52 1.4 34.6
04:00 1025 30.27 854 25.22 10.7 51.3 52 1.4 34.6
04:05 1025 30.27 854 25.22 10.8 51.4 52 1.4 34.5
04:10 1025 30.27 854 25.22 10.8 51.4 52 1.5 34.7
04:15 1025 30.27 854 25.22 10.8 51.5 52 1.3 34.4
04:20 1025 30.27 854 25.22 10.9 51.6 52 1.5 34.6
04:25 1025 30.27 854 25.22 10.8 51.5 52 1.5 34.6
04:30 1025 30.27 854 25.22 10.8 51.4 52 1.4 34.5
04:35 1025 30.27 854 25.22 10.8 51.4 52 1.4 34.6
04:40 1025 30.27 854 25.22 10.8 51.4 52 1.3 34.4
04:45 1025 30.27 854 25.22 10.8 51.4 52 1.4 34.5
04:50 1025 30.27 854 25.22 10.7 51.3 53 1.5 34.6
04:55 1025 30.27 854 25.22 10.7 51.2 52 1.4 34.5
05:00 1025 30.27 854 25.22 10.6 51.1 53 1.5 34.6
05:05 1025 30.27 854 25.22 10.5 51 53 1.5 34.6
05:10 1025 30.27 854 25.22 10.4 50.8 53 1.4 34.5
05:15 1025 30.27 854 25.22 10.4 50.7 54 1.5 34.6
05:20 1025 30.27 854 25.22 10.3 50.5 54 1.5 34.6
05:25 1025 30.27 854 25.22 10.2 50.4 54 1.4 34.6
05:30 1025 30.27 854 25.22 10.3 50.5 54 1.4 34.6
05:35 1025 30.27 854 25.22 10.3 50.5 54 1.5 34.6
05:40 1025 30.27 854 25.22 10.2 50.3 55 1.5 34.8
05:45 1025 30.27 854 25.22 10.1 50.2 55 1.5 34.7
05:50 1024 30.24 854 25.22 10.1 50.1 55 1.5 34.6
05:55 1025 30.27 854 25.22 10.1 50.1 55 1.5 34.7
06:00 1024 30.24 854 25.22 10.1 50.2 55 1.5 34.7
06:05 1025 30.27 854 25.22 10 50.1 55 1.6 34.8
06:10 1025 30.27 854 25.22 9.9 49.9 56 1.5 34.7
06:15 1025 30.27 854 25.22 10 49.9 56 1.5 34.7
06:20 1025 30.27 854 25.22 10 49.9 56 1.5 34.8
06:25 1024 30.24 854 25.22 9.9 49.9 56 1.6 34.8
06:30 1024 30.24 854 25.22 9.9 49.9 56 1.5 34.7
06:35 1024 30.24 853 25.19 9.9 49.7 56 1.6 34.9
06:40 1024 30.24 853 25.19 9.7 49.5 57 1.6 34.8
06:45 1024 30.24 853 25.19 9.7 49.4 57 1.5 34.7
06:50 1024 30.24 853 25.19 9.7 49.4 56 1.5 34.7
06:55 1024 30.24 853 25.19 9.6 49.4 57 1.6 34.9
07:00 1024 30.24 853 25.19 9.5 49.1 57 1.6 34.8
07:05 1024 30.24 853 25.19 9.3 48.8 58 1.5 34.7
07:10 1024 30.24 853 25.19 9.4 48.9 58 1.5 34.7
07:15 1024 30.24 853 25.19 9.4 49 57 1.5 34.7
07:20 1024 30.24 853 25.19 9.6 49.3 56 1.4 34.5
07:25 1024 30.24 853 25.19 9.8 49.7 56 1.5 34.6
07:30 1024 30.24 853 25.19 9.9 49.9 56 1.6 34.8
07:35 1024 30.24 853 25.19 10 50 55 1.5 34.7
07:40 1024 30.24 853 25.19 10 50.1 55 1.6 34.8
07:45 1024 30.24 853 25.19 10.2 50.3 55 1.6 34.9
07:50 1024 30.24 853 25.19 10.3 50.5 55 1.6 34.9
07:55 1024 30.24 853 25.19 10.5 51 53 1.5 34.7
08:00 1024 30.24 853 25.19 10.7 51.3 53 1.5 34.7
08:05 1024 30.24 853 25.19 10.8 51.4 53 1.6 34.9
08:10 1024 30.24 853 25.19 10.9 51.6 53 1.6 34.9
08:15 1024 30.24 853 25.19 10.9 51.7 53 1.7 35.1
08:20 1024 30.24 853 25.19 11 51.8 52 1.6 35
08:25 1024 30.24 853 25.19 11.1 51.9 52 1.7 35.1
08:30 1024 30.24 853 25.19 11.1 51.9 52 1.8 35.2
08:35 1024 30.24 853 25.19 11.2 52.1 52 1.7 35.1
08:40 1024 30.24 853 25.19 11.3 52.3 51 1.7 35
08:45 1024 30.24 853 25.19 11.4 52.4 52 1.8 35.3
08:50 1024 30.24 853 25.19 11.6 52.8 51 1.8 35.2
08:55 1024 30.24 853 25.19 11.6 52.9 51 1.8 35.2
09:00 1024 30.24 853 25.19 11.8 53.3 50 1.8 35.3
09:05 1024 30.24 853 25.19 12 53.7 50 1.9 35.5
09:10 1024 30.24 853 25.19 12.1 53.7 50 1.9 35.4
09:15 1024 30.24 853 25.19 12.2 53.9 49 1.8 35.3
09:20 1024 30.24 853 25.19 12.5 54.4 48 1.7 35.1
09:25 1024 30.24 853 25.19 12.3 54.2 48 1.8 35.2
09:30 1024 30.24 853 25.19 12.5 54.5 47 1.6 34.8
09:35 1023 30.21 853 25.19 12.7 54.8 46 1.6 34.9
09:40 1023 30.21 853 25.19 12.7 54.8 47 1.6 34.9
09:45 1023 30.21 853 25.19 12.8 55 45 1.3 34.3
09:50 1023 30.21 853 25.19 12.9 55.2 46 1.7 35.1
09:55 1023 30.21 853 25.19 12.9 55.3 46 1.8 35.2
10:00 1023 30.21 853 25.19 13 55.4 46 1.8 35.2
10:05 1023 30.21 853 25.19 13.2 55.8 45 1.5 34.7
10:10 1023 30.21 852 25.16 13.4 56.1 44 1.6 34.9
10:15 1023 30.21 852 25.16 13.6 56.5 44 1.6 34.8
10:20 1023 30.21 852 25.16 13.8 56.8 44 1.8 35.2
10:25 1023 30.21 852 25.16 14.2 57.6 42 1.5 34.6
10:30 1023 30.21 852 25.16 14.6 58.2 41 1.6 34.9
10:35 1023 30.21 852 25.16 14.6 58.3 41 1.7 35
10:40 1023 30.21 852 25.16 14.8 58.7 41 1.7 35.1
10:45 1023 30.21 852 25.16 14.8 58.6 41 1.6 35
10:50 1023 30.21 852 25.16 15.1 59.1 40 1.7 35
10:55 1023 30.21 852 25.16 15.4 59.7 38 1.4 34.5
11:00 1023 30.21 852 25.16 15.5 59.8 40 2 35.5
11:05 1023 30.21 852 25.16 15.6 60.2 39 1.7 35
11:10 1023 30.21 852 25.16 15.9 60.6 37 1.4 34.5
11:15 1022 30.18 852 25.16 15.9 60.6 38 1.6 34.8
11:20 1022 30.18 852 25.16 16.2 61.2 36 1.4 34.5
11:25 1022 30.18 852 25.16 15.9 60.5 37 1.5 34.7
11:30 1022 30.18 852 25.16 16.2 61.2 36 1.4 34.5
11:35 1022 30.18 852 25.16 16.1 61 36 1.3 34.3
11:40 1022 30.18 851 25.13 16.2 61.1 36 1.2 34.2
11:45 1022 30.18 851 25.13 16.2 61.2 36 1.1 34
11:50 1022 30.18 851 25.13 16.3 61.4 34 0.6 33.1
11:55 1022 30.18 851 25.13 16.7 62 34 0.9 33.5
12:00 1022 30.18 851 25.13 16.6 61.8 36 1.6 34.9
12:05 1022 30.18 851 25.13 16.6 61.8 36 1.4 34.6
12:10 1022 30.18 851 25.13 16.7 62.1 36 1.7 35.1
12:15 1022 30.18 851 25.13 16.4 61.5 36 1.4 34.5
12:20 1022 30.18 851 25.13 16.5 61.8 36 1.5 34.6
12:25 1022 30.18 851 25.13 16.4 61.5 37 1.7 35.1
12:30 1021 30.15 851 25.13 16.8 62.3 35 1.3 34.4
12:35 1021 30.15 851 25.13 16.9 62.4 34 0.8 33.5
12:40 1021 30.15 851 25.13 17 62.7 35 1.5 34.7
12:45 1021 30.15 850 25.1 17.2 62.9 35 1.6 34.8
12:50 1021 30.15 850 25.1 17.4 63.4 34 1.7 35
12:55 1021 30.15 850 25.1 17.4 63.4 35 2.1 35.8
13:00 1021 30.15 850 25.1 17.3 63.1 35 1.9 35.3
13:05 1021 30.15 850 25.1 17.2 62.9 35 1.6 34.8
13:10 1021 30.15 850 25.1 17.5 63.5 34 1.8 35.2
13:15 1021 30.15 850 25.1 17.8 64.1 32 1.1 33.9
13:20 1021 30.15 850 25.1 17.9 64.2 32 1.3 34.3
13:25 1021 30.15 850 25.1 18.1 64.6 32 1.4 34.5
13:30 1021 30.15 850 25.1 18.3 64.9 32 1.6 34.8
13:35 1021 30.15 850 25.1 18 64.4 33 1.5 34.7
13:40 1021 30.15 850 25.1 18.2 64.7 32 1.5 34.8
13:45 1021 30.15 850 25.1 18.2 64.8 32 1.5 34.6
13:50 1020 30.12 850 25.1 18.3 65 31 1.2 34.2
13:55 1020 30.12 850 25.1 18.4 65.1 32 1.4 34.5
14:00 1020 30.12 850 25.1 18.7 65.7 30 1 33.9
14:05 1020 30.12 850 25.1 18.8 65.9 31 1.5 34.7
14:10 1020 30.12 849 25.07 19.2 66.6 30 1.2 34.2
14:15 1020 30.12 849 25.07 19.3 66.7 28 0.7 33.2
14:20 1020 30.12 849 25.07 19.2 66.6 29 0.8 33.5
14:25 1020 30.12 849 25.07 19.6 67.3 29 1.5 34.6
14:30 1020 30.12 849 25.07 19.9 67.8 27 0.7 33.3
14:35 1020 30.12 849 25.07 19.7 67.5 27 0.3 32.6
14:40 1020 30.12 849 25.07 19.7 67.5 28 1.1 34
14:45 1020 30.12 849 25.07 20 68 27 0.8 33.5
14:50 1020 30.12 849 25.07 19.5 67.1 27 0.4 32.7
14:55 1020 30.12 849 25.07 19.6 67.3 28 0.5 33
15:00 1020 30.12 849 25.07 19.6 67.3 27 0.1 32.3
15:05 1019 30.09 849 25.07 19.9 67.8 27 0.3 32.5
15:10 1019 30.09 849 25.07 20 68 26 0.3 32.6
15:15 1019 30.09 848 25.04 20.5 69 24 -0.4 31.4
15:20 1019 30.09 848 25.04 20.4 68.7 26 0.2 32.3
15:25 1019 30.09 848 25.04 20.3 68.5 25 -0.4 31.3
15:30 1019 30.09 848 25.04 20.6 69.1 24 -0.6 30.8
15:35 1019 30.09 848 25.04 20.5 68.8 24 -0.6 31
15:40 1019 30.09 848 25.04 20.7 69.2 23 -0.8 30.6
15:45 1019 30.09 848 25.04 20.4 68.7 25 -0.4 31.3
15:50 1019 30.09 848 25.04 20.5 69 24 -0.8 30.6
15:55 1018 30.06 848 25.04 20.6 69.1 25 -0.1 31.9
16:00 1018 30.06 848 25.04 20.4 68.6 25 -0.3 31.4
16:05 1018 30.06 847 25.01 20.5 68.8 24 -0.5 31.2
16:10 1018 30.06 848 25.04 20.3 68.5 24 -0.6 30.9
16:15 1018 30.06 848 25.04 20.3 68.5 24 -1 30.1
16:20 1018 30.06 848 25.04 20.2 68.3 24 -0.7 30.7
16:25 1018 30.06 848 25.04 20.3 68.5 24 -0.6 31
16:30 1018 30.06 848 25.04 20.5 68.9 24 -0.4 31.2
16:35 1018 30.06 847 25.01 20.7 69.3 24 -0.5 31
16:40 1018 30.06 847 25.01 20.7 69.2 23 -0.8 30.5
16:45 1018 30.06 847 25.01 20.7 69.3 23 -1 30.2
16:50 1018 30.06 847 25.01 20.7 69.2 23 -1.2 29.8
16:55 1018 30.06 847 25.01 20.9 69.6 22 -1.4 29.6
17:00 1018 30.06 847 25.01 20.6 69.1 22 -1.4 29.4
17:05 1018 30.06 847 25.01 20.5 68.8 22 -1.7 29
17:10 1018 30.06 847 25.01 20.5 68.9 22 -1.9 28.6
17:15 1018 30.06 847 25.01 20.5 68.9 21 -2.2 28.1
17:20 1018 30.06 847 25.01 20.5 68.8 21 -2.3 27.9
17:25 1018 30.06 847 25.01 20.4 68.7 22 -1.8 28.8
17:30 1018 30.06 847 25.01 20.3 68.5 22 -1.8 28.7
17:35 1018 30.06 847 25.01 20.3 68.6 22 -1.9 28.5
17:40 1018 30.06 847 25.01 20 68 22 -2.2 28
17:45 1018 30.06 847 25.01 20 67.9 22 -2.5 27.5
17:50 1018 30.06 847 25.01 19.9 67.9 22 -2.3 27.8
17:55 1018 30.06 847 25.01 20 68.1 22 -2.5 27.5
18:00 1018 30.06 847 25.01 20 68 21 -2.7 27.1
18:05 1018 30.06 847 25.01 19.9 67.8 21 -3.1 26.4
18:10 1018 30.06 847 25.01 19.8 67.6 21 -3 26.6
18:15 1018 30.06 847 25.01 19.8 67.6 22 -2.7 27.2
18:20 1018 30.06 847 25.01 19.5 67.2 22 -2.6 27.4
18:25 1018 30.06 847 25.01 19.3 66.7 22 -2.5 27.4
18:30 1018 30.06 847 25.01 19.1 66.5 23 -2.5 27.4
18:35 1018 30.06 847 25.01 19.1 66.3 24 -1.9 28.7
18:40 1018 30.06 847 25.01 19 66.1 24 -2.1 28.1
18:45 1018 30.06 847 25.01 18.8 65.9 24 -2.1 28.2
18:50 1018 30.06 847 25.01 18.7 65.6 24 -2.1 28.3
18:55 1018 30.06 847 25.01 18.6 65.5 25 -1.8 28.8
19:00 1018 30.06 847 25.01 18.4 65.2 26 -1.4 29.6
19:05 1017 30.03 847 25.01 18.3 64.9 26 -1.4 29.5
19:10 1017 30.03 847 25.01 18.2 64.7 26 -1.4 29.4
19:15 1017 30.03 847 25.01 18.1 64.5 26 -1.4 29.5
19:20 1017 30.03 847 25.01 17.9 64.3 27 -1.3 29.7
19:25 1017 30.03 846 24.98 17.8 64.1 27 -1.2 29.9
19:30 1017 30.03 846 24.98 17.7 63.8 28 -1.2 29.9
19:35 1017 30.03 846 24.98 17.5 63.6 28 -0.9 30.4
19:40 1017 30.03 846 24.98 17.3 63.2 29 -0.9 30.3
19:45 1017 30.03 846 24.98 17.3 63.1 29 -1 30.3
19:50 1017 30.03 846 24.98 17.2 63 29 -0.7 30.7
19:55 1017 30.03 846 24.98 16.9 62.5 30 -0.8 30.6
20:00 1017 30.03 846 24.98 16.8 62.3 30 -0.7 30.7
20:05 1017 30.03 846 24.98 16.8 62.2 30 -0.7 30.8
20:10 1017 30.03 846 24.98 16.6 61.8 31 -0.7 30.7
20:15 1017 30.03 846 24.98 16.4 61.6 31 -0.7 30.8
20:20 1017 30.03 846 24.98 16.4 61.4 31 -0.8 30.6
20:25 1017 30.03 846 24.98 16.4 61.4 31 -0.7 30.7
20:30 1017 30.03 846 24.98 16.2 61.2 31 -0.7 30.7
20:35 1017 30.03 846 24.98 16.1 60.9 32 -0.6 31
20:40 1017 30.03 846 24.98 15.9 60.5 32 -0.6 31
20:45 1017 30.03 846 24.98 15.9 60.5 32 -0.6 31
20:50 1017 30.03 846 24.98 15.8 60.4 32 -0.6 30.9
20:55 1017 30.03 846 24.98 15.9 60.5 32 -0.5 31
21:00 1017 30.03 846 24.98 15.8 60.4 32 -0.6 30.9
21:05 1017 30.03 846 24.98 15.7 60.3 33 -0.4 31.3
21:10 1017 30.03 846 24.98 15.6 60.1 33 -0.4 31.2
21:15 1017 30.03 846 24.98 15.5 59.9 34 -0.4 31.3
21:20 1017 30.03 846 24.98 15.6 60 34 -0.3 31.5
21:25 1017 30.03 846 24.98 15.5 59.8 34 -0.1 31.8
21:30 1017 30.03 846 24.98 15.4 59.7 35 0.1 32.2
21:35 1017 30.03 846 24.98 15.2 59.3 35 -0 31.9
21:40 1017 30.03 846 24.98 15.3 59.5 35 -0.1 31.8
21:45 1017 30.03 846 24.98 15.2 59.4 35 0.1 32.2
21:50 1017 30.03 846 24.98 15.2 59.4 36 0.2 32.4
21:55 1017 30.03 846 24.98 15.1 59.2 37 0.5 32.9
22:00 1017 30.03 846 24.98 15 59 37 0.6 33.2
22:05 1017 30.03 846 24.98 14.8 58.7 38 0.8 33.4
22:10 1017 30.03 846 24.98 14.8 58.6 39 1 33.8
22:15 1017 30.03 846 24.98 14.6 58.3 40 1.2 34.2
22:20 1017 30.03 846 24.98 14.5 58 41 1.3 34.4
22:25 1017 30.03 846 24.98 14.4 57.8 41 1.5 34.7
22:30 1017 30.03 846 24.98 14.3 57.7 42 1.6 34.9
22:35 1016 30 846 24.98 14.2 57.6 43 1.8 35.3
22:40 1016 30 846 24.98 14.2 57.6 43 1.9 35.4
22:45 1016 30 846 24.98 14.2 57.6 43 2 35.7
22:50 1016 30 845 24.95 14.2 57.5 44 2.1 35.8
22:55 1016 30 845 24.95 14 57.2 44 2.2 35.9
23:00 1016 30 845 24.95 14 57.2 44 2.1 35.8
23:05 1016 30 845 24.95 14 57.3 44 2.2 35.9
23:10 1016 30 846 24.98 14 57.3 45 2.3 36.2
23:15 1016 30 846 24.98 14 57.1 45 2.4 36.3
23:20 1016 30 846 24.98 13.7 56.7 46 2.5 36.4
23:25 1016 30 846 24.98 13.6 56.4 47 2.4 36.4
23:30 1016 30 846 24.98 13.5 56.2 47 2.4 36.4
23:35 1016 30 845 24.95 13.3 55.9 48 2.5 36.4
23:40 1016 30 845 24.95 13.1 55.6 48 2.5 36.5
23:45 1016 30 845 24.95 13 55.4 48 2.4 36.3
23:50 1016 30 845 24.95 13 55.3 49 2.5 36.4
23:55 1016 30 845 24.95 12.8 55.1 49 2.5 36.4
24:00 1016 30 845 24.95 12.7 54.9 50 2.5 36.5